Archiv-/Tagesdaten

--Timestamp---	Temp	Chill	HIndex	Humid	Dewpt	Wind	HiWind	WindDir	Rain	Barom	Solar	ET	UV
--------------	----	-----	------	-----	-----	----	------	-------	----	-----	-----	--	--
20070925 00:05	14.1	14.1	14.1	86	11.8	0	5	225	0.00	1014.531	0	0.000	0
20070925 00:10	14.1	14.1	14.1	85	11.6	0	3	225	0.00	1014.531	0	0.000	0
20070925 00:15	14.1	14.1	14.1	85	11.6	2	5	225	0.00	1014.497	0	0.000	0
20070925 00:20	13.9	13.9	13.9	85	11.5	2	5	225	0.00	1014.497	0	0.000	0
20070925 00:25	13.8	13.8	13.8	85	11.4	2	5	225	0.00	1014.531	0	0.000	0
20070925 00:30	13.7	13.7	13.7	86	11.4	0	5	225	0.00	1014.531	0	0.000	0
20070925 00:35	13.6	13.6	13.6	86	11.3	0	2	225	0.00	1014.463	0	0.000	0
20070925 00:40	13.5	13.5	13.5	86	11.2	0	2	225	0.00	1014.396	0	0.000	0
20070925 00:45	13.4	13.4	13.4	87	11.3	0	2	225	0.00	1014.362	0	0.000	0
20070925 00:50	13.4	13.4	13.4	87	11.3	0	3	225	0.00	1014.396	0	0.000	0
20070925 00:55	13.3	13.3	13.3	87	11.2	0	3	225	0.00	1014.362	0	0.000	0
20070925 01:00	13.3	13.3	13.3	87	11.2	0	3	225	0.00	1014.260	0	0.000	0
20070925 01:05	13.3	13.3	13.3	87	11.2	0	3	225	0.00	1014.159	0	0.000	0
20070925 01:10	13.3	13.3	13.3	87	11.2	0	3	225	0.00	1014.226	0	0.000	0
20070925 01:15	13.3	13.3	13.3	86	11.0	2	6	225	0.00	1014.226	0	0.000	0
20070925 01:20	13.3	13.3	13.3	86	11.0	0	2	225	0.00	1014.226	0	0.000	0
20070925 01:25	13.2	13.2	13.2	86	10.9	2	5	225	0.00	1014.192	0	0.000	0
20070925 01:30	13.1	13.1	13.1	87	10.9	3	6	225	0.00	1014.226	0	0.000	0
20070925 01:35	13.1	13.1	13.1	87	10.9	3	10	202	0.00	1014.260	0	0.000	0
20070925 01:40	13.0	13.0	13.0	87	10.9	3	8	202	0.00	1014.226	0	0.000	0
20070925 01:45	12.9	12.9	12.9	88	11.0	2	5	202	0.00	1014.159	0	0.000	0
20070925 01:50	12.8	12.8	12.8	88	10.8	2	6	202	0.00	1014.192	0	0.000	0
20070925 01:55	12.7	12.7	12.7	88	10.8	3	6	202	0.00	1014.192	0	0.000	0
20070925 02:00	12.7	12.7	12.7	88	10.7	3	8	202	0.00	1014.260	0	0.000	0
20070925 02:05	12.7	12.7	12.7	89	10.9	0	5	202	0.00	1014.192	0	0.000	0
20070925 02:10	12.7	12.7	12.7	88	10.8	3	8	202	0.00	1014.057	0	0.000	0
20070925 02:15	12.8	12.8	12.8	88	10.9	2	8	202	0.00	1013.989	0	0.000	0
20070925 02:20	12.9	12.9	12.9	87	10.8	3	10	202	0.00	1013.955	0	0.000	0
20070925 02:25	12.9	12.9	12.9	87	10.8	5	11	202	0.00	1013.888	0	0.000	0
20070925 02:30	12.9	12.9	12.9	87	10.8	5	10	180	0.00	1013.888	0	0.000	0
20070925 02:35	12.9	12.9	12.9	87	10.8	3	8	180	0.00	1013.854	0	0.000	0
20070925 02:40	12.9	12.9	12.9	87	10.8	5	8	202	0.00	1013.786	0	0.000	0
20070925 02:45	12.9	12.9	12.9	87	10.8	5	10	202	0.00	1013.752	0	0.000	0
20070925 02:50	12.9	12.9	12.9	86	10.7	3	10	202	0.00	1013.651	0	0.000	0
20070925 02:55	12.9	12.9	12.9	86	10.7	2	3	202	0.00	1013.583	0	0.000	0
20070925 03:00	12.9	12.9	12.9	86	10.7	3	5	202	0.00	1013.481	0	0.020	0
20070925 03:05	12.9	12.9	12.9	86	10.6	3	6	202	0.00	1013.380	0	0.000	0
20070925 03:10	12.8	12.8	12.8	86	10.5	5	8	202	0.00	1013.380	0	0.000	0
20070925 03:15	12.8	12.8	12.8	86	10.5	3	8	202	0.00	1013.380	0	0.000	0
20070925 03:20	12.8	12.8	12.8	86	10.5	2	5	202	0.00	1013.244	0	0.000	0
20070925 03:25	12.8	12.8	12.8	86	10.5	2	6	202	0.00	1013.177	0	0.000	0
20070925 03:30	12.7	12.7	12.7	87	10.6	0	2	202	0.00	1013.109	0	0.000	0
20070925 03:35	12.7	12.7	12.7	87	10.6	0	0	202	0.00	1013.143	0	0.000	0
20070925 03:40	12.7	12.7	12.7	87	10.6	0	3	202	0.00	1013.075	0	0.000	0
20070925 03:45	12.7	12.7	12.7	87	10.6	0	3	202	0.00	1013.007	0	0.000	0
20070925 03:50	12.7	12.7	12.7	87	10.6	0	2	202	0.00	1012.939	0	0.000	0
20070925 03:55	12.8	12.8	12.8	87	10.7	0	3	202	0.00	1013.007	0	0.000	0
20070925 04:00	12.7	12.7	12.7	87	10.6	0	3	202	0.00	1013.041	0	0.000	0
20070925 04:05	12.7	12.7	12.7	87	10.6	2	5	202	0.00	1013.109	0	0.000	0
20070925 04:10	12.8	12.8	12.8	87	10.7	2	6	202	0.00	1013.143	0	0.000	0
20070925 04:15	12.8	12.8	12.8	87	10.7	2	5	202	0.00	1013.143	0	0.000	0
20070925 04:20	12.8	12.8	12.8	87	10.7	2	6	202	0.00	1013.143	0	0.000	0
20070925 04:25	12.7	12.7	12.7	87	10.6	0	5	202	0.00	1013.143	0	0.000	0
20070925 04:30	12.8	12.8	12.8	87	10.7	0	3	202	0.00	1013.177	0	0.000	0
20070925 04:35	12.8	12.8	12.8	87	10.7	0	5	202	0.00	1013.177	0	0.000	0
20070925 04:40	12.9	12.9	12.9	87	10.8	0	5	202	0.00	1013.143	0	0.000	0
20070925 04:45	12.9	12.9	12.9	87	10.8	0	3	202	0.00	1013.109	0	0.000	0
20070925 04:50	13.0	13.0	13.0	87	10.9	0	3	202	0.00	1013.007	0	0.000	0
20070925 04:55	13.1	13.1	13.1	87	10.9	0	2	202	0.00	1012.939	0	0.000	0
20070925 05:00	13.1	13.1	13.1	87	11.0	0	2	202	0.00	1012.838	0	0.000	0
20070925 05:05	13.1	13.1	13.1	87	11.0	0	2	202	0.00	1012.939	0	0.000	0
20070925 05:10	13.1	13.1	13.1	87	11.0	0	3	202	0.00	1012.939	0	0.000	0
20070925 05:15	13.1	13.1	13.1	87	11.0	0	2	202	0.00	1012.973	0	0.000	0
20070925 05:20	13.1	13.1	13.1	87	11.0	0	3	202	0.00	1013.007	0	0.000	0
20070925 05:25	13.1	13.1	13.1	87	11.0	0	2	202	0.00	1012.939	0	0.000	0
20070925 05:30	13.1	13.1	13.1	87	11.0	0	2	202	0.00	1012.939	0	0.000	0
20070925 05:35	13.1	13.1	13.1	87	11.0	0	3	202	0.00	1012.939	0	0.000	0
20070925 05:40	13.1	13.1	13.1	87	11.0	0	2	202	0.00	1012.939	0	0.000	0
20070925 05:45	13.1	13.1	13.1	87	10.9	0	3	202	0.00	1012.906	0	0.000	0
20070925 05:50	13.1	13.1	13.1	87	10.9	0	3	202	0.00	1012.872	0	0.000	0
20070925 05:55	13.1	13.1	13.1	87	10.9	2	5	202	0.00	1012.804	0	0.000	0
20070925 06:00	13.1	13.1	13.1	88	11.2	2	5	202	0.00	1012.872	0	0.000	0
20070925 06:05	13.2	13.2	13.2	88	11.2	2	5	202	0.00	1012.939	0	0.000	0
20070925 06:10	13.2	13.2	13.2	87	11.0	0	3	202	0.00	1012.872	0	0.000	0
20070925 06:15	13.2	13.2	13.2	87	11.1	0	3	202	0.00	1012.872	0	0.000	0
20070925 06:20	13.3	13.3	13.3	88	11.3	0	2	202	0.00	1012.906	0	0.000	0
20070925 06:25	13.3	13.3	13.3	88	11.3	0	2	202	0.00	1012.906	0	0.000	0
20070925 06:30	13.3	13.3	13.3	88	11.3	0	2	202	0.00	1012.973	0	0.000	0
20070925 06:35	13.3	13.3	13.3	88	11.3	0	2	202	0.00	1012.939	0	0.000	0
20070925 06:40	13.3	13.3	13.3	88	11.3	0	2	202	0.00	1012.973	0	0.000	0
20070925 06:45	13.3	13.3	13.3	88	11.3	0	2	202	0.00	1012.973	0	0.000	0
20070925 06:50	13.3	13.3	13.3	89	11.5	0	3	202	0.00	1012.939	0	0.000	0
20070925 06:55	13.3	13.3	13.3	89	11.5	0	3	202	0.00	1012.906	0	0.000	0
20070925 07:00	13.3	13.3	13.3	89	11.5	0	2	202	0.00	1012.906	0	0.000	0
20070925 07:05	13.3	13.3	13.3	89	11.5	0	2	202	0.00	1013.278	0	0.000	0
20070925 07:10	13.3	13.3	13.3	89	11.6	0	2	202	0.00	1013.312	0	0.000	0
20070925 07:15	13.3	13.3	13.3	89	11.6	0	3	202	0.00	1013.346	0	0.000	0
20070925 07:20	13.3	13.3	13.3	89	11.6	0	5	202	0.00	1013.447	0	0.000	0
20070925 07:25	13.4	13.4	13.4	89	11.6	0	3	202	0.00	1013.481	3	0.000	0
20070925 07:30	13.4	13.4	13.4	89	11.6	2	3	202	0.00	1013.481	5	0.000	0
20070925 07:35	13.4	13.4	13.4	92	12.1	2	5	202	0.00	1013.515	0	0.000	0
20070925 07:40	13.4	13.4	13.4	90	11.8	2	3	202	0.00	1013.549	0	0.000	0
20070925 07:45	13.4	13.4	13.4	90	11.8	2	6	202	0.00	1013.617	0	0.000	0
20070925 07:50	13.4	13.4	13.4	90	11.8	5	10	270	0.00	1013.583	1	0.000	0
20070925 07:55	13.5	13.5	13.5	90	11.9	5	11	292	0.00	1013.515	6	0.000	0
20070925 08:00	13.6	13.6	13.6	90	12.0	5	8	292	0.00	1013.583	3	0.000	0
20070925 08:05	13.7	13.7	13.7	90	12.1	5	6	270	0.00	1013.651	7	0.000	0
20070925 08:10	13.7	13.7	13.7	91	12.3	5	8	270	0.00	1013.583	13	0.000	0
20070925 08:15	13.7	13.7	13.7	91	12.3	3	6	292	0.00	1013.515	26	0.000	0
20070925 08:20	13.7	13.7	13.7	90	12.1	5	10	270	0.00	1013.583	41	0.000	0
20070925 08:25	13.8	13.8	13.8	90	12.2	6	10	292	0.00	1013.651	45	0.000	0
20070925 08:30	13.8	13.8	13.8	90	12.2	6	16	292	0.00	1013.617	32	0.000	0
20070925 08:35	13.8	13.8	13.8	90	12.2	5	8	270	0.00	1013.752	18	0.000	0
20070925 08:40	13.8	13.8	13.8	90	12.2	5	10	292	0.00	1013.820	20	0.000	0
20070925 08:45	13.8	13.8	13.8	90	12.2	8	18	292	0.00	1013.888	24	0.000	0
20070925 08:50	13.7	13.7	13.7	90	12.1	6	16	270	0.00	1013.922	38	0.000	0
20070925 08:55	13.7	13.7	13.7	90	12.1	6	14	270	0.00	1013.922	41	0.000	0
20070925 09:00	13.6	13.6	13.6	90	12.0	8	19	292	0.00	1013.854	42	0.020	0
20070925 09:05	13.6	13.6	13.6	90	11.9	5	14	292	0.00	1014.192	25	0.000	0
20070925 09:10	13.5	13.5	13.5	90	11.9	8	16	292	0.00	1014.226	17	0.000	0
20070925 09:15	13.1	13.1	13.1	85	10.6	11	31	292	0.00	1014.429	8	0.000	0
20070925 09:20	12.5	12.5	12.5	87	10.4	5	16	292	0.00	1014.565	33	0.000	0
20070925 09:25	12.1	12.1	12.1	89	10.3	6	18	292	0.00	1014.802	39	0.000	0
20070925 09:30	11.8	11.8	11.8	90	10.2	8	18	292	0.00	1014.937	34	0.000	0
20070925 09:35	11.7	11.7	11.7	91	10.3	6	21	292	0.00	1015.073	16	0.000	0
20070925 09:40	11.6	11.6	11.6	90	10.0	10	24	292	0.20	1015.411	8	0.000	0
20070925 09:45	11.2	11.2	11.2	82	8.2	18	34	292	0.00	1016.021	7	0.000	0
20070925 09:50	10.7	10.7	10.7	84	8.1	16	34	292	0.20	1016.360	9	0.000	0
20070925 09:55	10.3	10.3	10.3	82	7.3	19	34	292	0.20	1016.495	16	0.000	0
20070925 10:00	9.9	8.1	9.9	85	7.5	13	29	292	0.40	1016.495	33	0.020	0
20070925 10:05	9.7	8.0	9.7	87	7.6	11	26	292	0.40	1016.698	33	0.000	0
20070925 10:10	9.5	8.1	9.5	88	7.6	10	23	292	0.20	1016.834	23	0.000	0
20070925 10:15	9.3	7.6	9.3	86	7.1	11	29	270	0.20	1017.037	21	0.000	0
20070925 10:20	9.1	7.1	9.1	86	6.9	13	27	292	0.60	1017.071	27	0.000	0
20070925 10:25	8.8	6.8	8.8	87	6.8	13	27	292	0.60	1017.172	39	0.000	0
20070925 10:30	8.6	7.1	8.6	88	6.7	10	23	270	0.40	1017.274	59	0.000	0
20070925 10:35	8.5	7.6	8.5	89	6.8	6	11	270	0.40	1017.443	81	0.000	1
20070925 10:40	8.4	6.6	8.4	89	6.7	11	19	292	0.20	1017.240	92	0.000	1
20070925 10:45	8.4	6.9	8.4	90	6.9	10	19	292	0.20	1017.172	124	0.000	1
20070925 10:50	8.6	7.7	8.6	91	7.2	6	10	292	0.20	1017.172	166	0.000	1
20070925 10:55	8.7	7.8	8.7	91	7.3	6	16	270	0.00	1017.139	161	0.000	1
20070925 11:00	8.8	8.0	8.8	91	7.4	6	16	270	0.20	1017.105	168	0.040	1
20070925 11:05	9.0	7.8	9.0	91	7.6	8	18	270	0.00	1017.274	205	0.000	2
20070925 11:10	9.2	8.0	9.2	90	7.6	8	19	292	0.00	1017.240	206	0.000	2
20070925 11:15	9.3	8.2	9.3	89	7.6	8	16	292	0.00	1017.172	179	0.000	2
20070925 11:20	9.3	8.2	9.3	89	7.6	8	19	292	0.00	1017.274	174	0.000	1
20070925 11:25	9.4	8.3	9.4	88	7.5	8	18	292	0.00	1017.240	184	0.000	2
20070925 11:30	9.4	8.0	9.4	89	7.7	10	23	292	0.00	1017.240	180	0.000	2
20070925 11:35	9.6	9.6	9.6	90	8.1	5	11	270	0.00	1017.240	192	0.000	2
20070925 11:40	9.8	9.1	9.8	89	8.1	6	14	292	0.00	1017.206	226	0.000	2
20070925 11:45	9.9	8.6	9.9	89	8.2	10	21	292	0.00	1017.308	212	0.000	2
20070925 11:50	10.0	10.0	10.0	89	8.3	8	18	270	0.00	1017.274	175	0.000	2
20070925 11:55	10.1	10.1	10.1	89	8.4	8	19	270	0.00	1017.342	144	0.000	1
20070925 12:00	10.2	10.2	10.2	87	8.1	10	23	270	0.00	1017.376	142	0.080	1
20070925 12:05	10.2	10.2	10.2	85	7.8	10	21	292	0.00	1017.376	162	0.000	2
20070925 12:10	10.2	10.2	10.2	84	7.6	11	23	292	0.00	1017.409	161	0.000	2
20070925 12:15	10.3	10.3	10.3	86	8.0	6	14	270	0.00	1017.443	78	0.000	1
20070925 12:20	10.3	10.3	10.3	86	8.0	8	16	270	0.00	1017.477	107	0.000	1
20070925 12:25	10.3	10.3	10.3	86	8.0	8	18	270	0.00	1017.443	137	0.000	1
20070925 12:30	10.3	10.3	10.3	85	7.9	6	16	270	0.00	1017.613	139	0.000	1
20070925 12:35	10.3	10.3	10.3	85	7.9	5	11	247	0.00	1017.613	138	0.000	1
20070925 12:40	10.3	10.3	10.3	85	7.9	6	14	270	0.00	1017.579	128	0.000	1
20070925 12:45	10.3	10.3	10.3	84	7.7	6	11	247	0.00	1017.680	125	0.000	1
20070925 12:50	10.3	10.3	10.3	84	7.7	8	18	292	0.00	1017.613	153	0.000	1
20070925 12:55	10.4	10.4	10.4	82	7.5	6	14	270	0.00	1017.579	177	0.000	2
20070925 13:00	10.5	10.5	10.5	83	7.7	3	10	270	0.00	1017.647	168	0.060	2
20070925 13:05	10.6	10.6	10.6	84	8.0	5	11	270	0.00	1017.613	121	0.000	1
20070925 13:10	10.6	10.6	10.6	82	7.6	5	10	292	0.00	1017.613	110	0.000	1
20070925 13:15	10.6	10.6	10.6	83	7.8	5	16	270	0.00	1017.511	109	0.000	1
20070925 13:20	10.6	10.6	10.6	82	7.6	6	11	292	0.00	1017.545	100	0.000	1
20070925 13:25	10.6	10.6	10.6	81	7.4	6	13	270	0.00	1017.477	75	0.000	1
20070925 13:30	10.4	10.4	10.4	82	7.5	5	10	270	0.00	1017.477	50	0.000	0
20070925 13:35	10.3	10.3	10.3	83	7.6	5	8	270	0.00	1017.409	48	0.000	0
20070925 13:40	10.4	10.4	10.4	84	7.8	3	8	292	0.00	1017.376	83	0.000	1
20070925 13:45	10.4	10.4	10.4	83	7.6	3	8	292	0.00	1017.274	108	0.000	1
20070925 13:50	10.4	10.4	10.4	85	8.0	2	8	292	0.00	1017.206	105	0.000	1
20070925 13:55	10.4	10.4	10.4	84	7.9	3	8	270	0.00	1017.172	96	0.000	1
20070925 14:00	10.4	10.4	10.4	83	7.7	3	8	270	0.00	1017.105	88	0.040	1
20070925 14:05	10.4	10.4	10.4	84	7.9	5	10	270	0.00	1017.105	82	0.000	1
20070925 14:10	10.4	10.4	10.4	83	7.7	3	10	270	0.00	1017.071	81	0.000	1
20070925 14:15	10.4	10.4	10.4	85	8.0	2	8	292	0.00	1017.037	100	0.000	1
20070925 14:20	10.5	10.5	10.5	84	7.9	3	8	270	0.00	1017.071	124	0.000	1
20070925 14:25	10.6	10.6	10.6	84	8.0	3	8	270	0.00	1017.206	99	0.000	1
20070925 14:30	10.6	10.6	10.6	84	8.0	5	8	247	0.00	1017.206	92	0.000	1
20070925 14:35	10.6	10.6	10.6	84	8.0	5	8	270	0.00	1017.206	76	0.000	1
20070925 14:40	10.6	10.6	10.6	84	8.0	3	8	270	0.00	1017.172	77	0.000	1
20070925 14:45	10.6	10.6	10.6	85	8.1	3	8	225	0.00	1017.071	77	0.000	1
20070925 14:50	10.5	10.5	10.5	84	7.9	3	6	270	0.00	1017.003	72	0.000	1
20070925 14:55	10.5	10.5	10.5	84	7.9	3	6	247	0.00	1016.969	67	0.000	1
20070925 15:00	10.4	10.4	10.4	83	7.7	3	6	247	0.00	1017.003	58	0.040	0
20070925 15:05	10.4	10.4	10.4	83	7.7	2	8	247	0.00	1017.037	58	0.000	0
20070925 15:10	10.4	10.4	10.4	84	7.9	2	5	270	0.00	1017.105	54	0.000	0
20070925 15:15	10.4	10.4	10.4	84	7.9	2	5	270	0.00	1017.071	51	0.000	0
20070925 15:20	10.4	10.4	10.4	85	8.0	2	5	270	0.00	1017.071	54	0.000	0
20070925 15:25	10.4	10.4	10.4	84	7.9	3	6	247	0.00	1017.071	79	0.000	1
20070925 15:30	10.4	10.4	10.4	84	7.9	3	8	270	0.00	1017.037	72	0.000	0
20070925 15:35	10.4	10.4	10.4	84	7.9	2	6	270	0.00	1017.037	51	0.000	0
20070925 15:40	10.4	10.4	10.4	85	8.0	5	8	247	0.00	1016.969	54	0.000	0
20070925 15:45	10.3	10.3	10.3	86	8.0	3	10	247	0.00	1017.003	53	0.000	0
20070925 15:50	10.2	10.2	10.2	86	7.9	5	8	247	0.20	1017.071	42	0.000	0
20070925 15:55	10.1	10.1	10.1	86	7.9	3	8	247	0.00	1017.240	41	0.000	0
20070925 16:00	10.0	10.0	10.0	87	7.9	3	8	247	0.20	1017.206	44	0.020	0
20070925 16:05	9.9	9.9	9.9	87	7.9	2	6	247	0.00	1017.037	43	0.000	0
20070925 16:10	9.9	9.9	9.9	88	8.0	2	6	247	0.00	1017.071	32	0.000	0
20070925 16:15	9.8	9.8	9.8	88	7.9	2	6	247	0.00	1017.071	31	0.000	0
20070925 16:20	9.8	9.8	9.8	89	8.1	3	6	247	0.00	1017.071	32	0.000	0
20070925 16:25	9.8	9.8	9.8	89	8.1	3	8	247	0.00	1017.172	31	0.000	0
20070925 16:30	9.8	9.8	9.8	89	8.1	5	10	247	0.00	1017.172	26	0.000	0
20070925 16:35	9.8	9.8	9.8	86	7.5	5	11	270	0.00	1017.172	31	0.000	0
20070925 16:40	9.7	9.1	9.7	85	7.3	6	16	292	0.00	1017.172	29	0.000	0
20070925 16:45	9.6	8.9	9.6	85	7.2	6	11	270	0.00	1017.274	24	0.000	0
20070925 16:50	9.3	8.6	9.3	86	7.1	6	11	270	0.00	1017.172	22	0.000	0
20070925 16:55	9.2	9.2	9.2	86	7.0	5	10	270	0.00	1017.342	17	0.000	0
20070925 17:00	9.1	9.1	9.1	86	6.9	5	11	292	0.00	1017.274	23	0.020	0
20070925 17:05	9.1	9.1	9.1	87	7.0	3	8	270	0.00	1017.308	24	0.000	0
20070925 17:10	9.1	9.1	9.1	87	7.0	2	6	270	0.00	1017.206	25	0.000	0
20070925 17:15	9.0	9.0	9.0	87	7.0	2	6	270	0.00	1017.274	22	0.000	0
20070925 17:20	9.0	9.0	9.0	87	7.0	3	8	270	0.00	1017.172	21	0.000	0
20070925 17:25	8.9	8.9	8.9	88	7.1	3	6	247	0.00	1017.206	16	0.000	0
20070925 17:30	8.9	8.9	8.9	87	6.9	2	6	247	0.00	1017.172	11	0.000	0
20070925 17:35	8.9	8.9	8.9	87	6.9	2	6	270	0.00	1017.206	11	0.000	0
20070925 17:40	8.9	8.9	8.9	87	6.9	2	8	247	0.00	1017.206	11	0.000	0
20070925 17:45	8.9	8.9	8.9	87	6.8	3	6	247	0.00	1017.139	11	0.000	0
20070925 17:50	8.8	8.8	8.8	88	7.0	2	6	247	0.00	1017.206	12	0.000	0
20070925 17:55	8.8	8.8	8.8	87	6.8	5	10	247	0.00	1017.206	10	0.000	0
20070925 18:00	8.8	8.8	8.8	87	6.8	3	8	225	0.20	1017.172	9	0.000	0
20070925 18:05	8.8	8.8	8.8	88	7.0	3	6	225	0.00	1017.172	8	0.000	0
20070925 18:10	8.8	8.8	8.8	89	7.1	3	6	247	0.00	1017.274	6	0.000	0
20070925 18:15	8.8	8.8	8.8	88	6.9	3	10	247	0.00	1017.274	1	0.000	0
20070925 18:20	8.7	8.7	8.7	89	7.0	2	8	247	0.00	1017.274	2	0.000	0
20070925 18:25	8.7	8.7	8.7	89	7.0	2	6	247	0.20	1017.409	5	0.000	0
20070925 18:30	8.7	8.7	8.7	90	7.2	3	10	247	0.00	1017.409	7	0.000	0
20070925 18:35	8.7	8.7	8.7	90	7.1	3	10	225	0.00	1017.511	5	0.000	0
20070925 18:40	8.7	8.7	8.7	90	7.1	2	6	202	0.20	1017.545	1	0.000	0
20070925 18:45	8.7	8.7	8.7	90	7.1	5	8	202	0.20	1017.545	0	0.000	0
20070925 18:50	8.6	8.6	8.6	90	7.1	3	10	225	0.00	1017.545	0	0.000	0
20070925 18:55	8.6	8.6	8.6	90	7.0	5	11	225	0.20	1017.511	0	0.000	0
20070925 19:00	8.6	8.6	8.6	90	7.0	3	8	180	0.00	1017.613	0	0.000	0
20070925 19:05	8.5	8.5	8.5	91	7.1	2	5	180	0.00	1017.511	0	0.000	0
20070925 19:10	8.5	8.5	8.5	91	7.1	3	10	180	0.20	1017.579	0	0.000	0
20070925 19:15	8.5	8.5	8.5	91	7.1	2	6	180	0.00	1017.545	0	0.000	0
20070925 19:20	8.5	8.5	8.5	91	7.1	2	5	157	0.20	1017.511	0	0.000	0
20070925 19:25	8.4	8.4	8.4	91	7.1	2	6	180	0.20	1017.511	0	0.000	0
20070925 19:30	8.4	8.4	8.4	91	7.0	2	5	180	0.20	1017.545	0	0.000	0
20070925 19:35	8.4	8.4	8.4	92	7.2	2	8	180	0.20	1017.613	0	0.000	0
20070925 19:40	8.4	8.4	8.4	91	7.0	2	5	180	0.20	1017.579	0	0.000	0
20070925 19:45	8.3	8.3	8.3	91	7.0	2	5	135	0.20	1017.613	0	0.000	0
20070925 19:50	8.3	8.3	8.3	91	6.9	2	6	157	0.20	1017.511	0	0.000	0
20070925 19:55	8.3	8.3	8.3	91	6.9	2	10	157	0.20	1017.477	0	0.000	0
20070925 20:00	8.2	8.2	8.2	90	6.6	3	8	157	0.00	1017.511	0	0.000	0
20070925 20:05	8.1	8.1	8.1	91	6.7	2	5	135	0.00	1017.613	0	0.000	0
20070925 20:10	8.1	8.1	8.1	90	6.5	2	6	157	0.00	1017.647	0	0.000	0
20070925 20:15	8.1	8.1	8.1	90	6.5	2	5	157	0.00	1017.613	0	0.000	0
20070925 20:20	8.0	8.0	8.0	90	6.5	2	8	157	0.00	1017.748	0	0.000	0
20070925 20:25	8.0	8.0	8.0	91	6.6	2	8	157	0.00	1017.884	0	0.000	0
20070925 20:30	8.0	8.0	8.0	91	6.6	2	6	157	0.20	1017.917	0	0.000	0
20070925 20:35	8.0	8.0	8.0	91	6.6	2	5	157	0.00	1017.951	0	0.000	0
20070925 20:40	8.0	8.0	8.0	92	6.8	2	8	180	0.00	1018.019	0	0.000	0
20070925 20:45	8.0	8.0	8.0	91	6.6	2	5	157	0.00	1018.019	0	0.000	0
20070925 20:50	7.9	7.9	7.9	90	6.4	2	5	157	0.00	1018.087	0	0.000	0
20070925 20:55	7.9	7.9	7.9	90	6.4	0	5	112	0.00	1018.121	0	0.000	0
20070925 21:00	7.8	7.8	7.8	90	6.2	0	5	180	0.00	1018.154	0	0.000	0
20070925 21:05	7.7	7.7	7.7	90	6.2	0	3	135	0.00	1018.493	0	0.000	0
20070925 21:10	7.7	7.7	7.7	90	6.1	2	5	135	0.20	1018.493	0	0.000	0
20070925 21:15	7.6	7.6	7.6	91	6.2	0	5	157	0.00	1018.459	0	0.000	0
20070925 21:20	7.6	7.6	7.6	91	6.2	2	3	157	0.00	1018.527	0	0.000	0
20070925 21:25	7.6	7.6	7.6	91	6.2	0	3	157	0.20	1018.493	0	0.000	0
20070925 21:30	7.5	7.5	7.5	91	6.1	0	3	157	0.20	1018.459	0	0.000	0
20070925 21:35	7.5	7.5	7.5	91	6.1	0	3	157	0.00	1018.527	0	0.000	0
20070925 21:40	7.4	7.4	7.4	90	5.9	0	5	157	0.00	1018.629	0	0.000	0
20070925 21:45	7.3	7.3	7.3	90	5.8	0	3	180	0.00	1018.662	0	0.000	0
20070925 21:50	7.3	7.3	7.3	90	5.7	2	5	180	0.20	1018.696	0	0.000	0
20070925 21:55	7.3	7.3	7.3	91	5.9	0	5	180	0.00	1018.696	0	0.000	0
20070925 22:00	7.3	7.3	7.3	90	5.7	0	3	180	0.20	1018.696	0	0.000	0
20070925 22:05	7.3	7.3	7.3	91	5.9	0	2	180	0.00	1018.764	0	0.000	0
20070925 22:10	7.3	7.3	7.3	91	5.9	0	3	180	0.00	1018.798	0	0.000	0
20070925 22:15	7.3	7.3	7.3	91	5.9	0	3	180	0.20	1018.696	0	0.000	0
20070925 22:20	7.3	7.3	7.3	91	6.0	0	5	180	0.20	1018.696	0	0.000	0
20070925 22:25	7.3	7.3	7.3	92	6.1	0	3	180	0.00	1018.764	0	0.000	0
20070925 22:30	7.4	7.4	7.4	92	6.2	0	2	180	0.20	1018.764	0	0.000	0
20070925 22:35	7.4	7.4	7.4	92	6.2	2	6	180	0.20	1018.866	0	0.000	0
20070925 22:40	7.4	7.4	7.4	92	6.2	0	5	180	0.20	1018.866	0	0.000	0
20070925 22:45	7.5	7.5	7.5	92	6.3	0	3	180	0.20	1018.899	0	0.000	0
20070925 22:50	7.5	7.5	7.5	92	6.3	0	0	180	0.20	1018.730	0	0.000	0
20070925 22:55	7.5	7.5	7.5	93	6.4	0	5	180	0.00	1018.798	0	0.000	0
20070925 23:00	7.5	7.5	7.5	93	6.4	2	6	180	0.00	1018.696	0	0.000	0
20070925 23:05	7.5	7.5	7.5	93	6.4	0	2	180	0.00	1018.493	0	0.000	0
20070925 23:10	7.5	7.5	7.5	93	6.4	0	2	180	0.00	1018.595	0	0.000	0
20070925 23:15	7.5	7.5	7.5	93	6.4	0	0	180	0.00	1018.459	0	0.000	0
20070925 23:20	7.6	7.6	7.6	93	6.5	0	2	180	0.00	1018.425	0	0.000	0
20070925 23:25	7.6	7.6	7.6	93	6.5	0	2	180	0.00	1018.425	0	0.000	0
20070925 23:30	7.6	7.6	7.6	93	6.5	0	2	180	0.00	1018.256	0	0.000	0
20070925 23:35	7.6	7.6	7.6	93	6.5	0	2	180	0.00	1018.188	0	0.000	0
20070925 23:40	7.6	7.6	7.6	93	6.6	0	2	180	0.00	1018.154	0	0.000	0
20070925 23:45	7.6	7.6	7.6	92	6.3	0	5	180	0.00	1018.019	0	0.000	0
20070925 23:50	7.6	7.6	7.6	92	6.3	0	2	180	0.00	1018.019	0	0.000	0
20070925 23:55	7.6	7.6	7.6	93	6.5	0	2	180	0.00	1017.917	0	0.000	0
20070925 24:00	7.6	7.6	7.6	93	6.5	0	2	180	0.20	1017.884	0	0.000	0



Please note the license to use and transfer of this data:
http://creativecommons.org/licenses/by-nc-sa/3.0/deed.en

Bitte beachten sie die Lizenz zur Verwertung und Weitergabe der Daten:
http://creativecommons.org/licenses/by-nc-sa/3.0/deed.de

zurück zur Übersicht der Archivdaten (Monats und Tagesdaten)

Cookies helfen bei der Bereitstellung von Inhalten. Durch die Nutzung dieser Seiten erklärst du dich damit einverstanden, dass Cookies auf deinem Rechner gespeichert werden. Weitere Information